Time;durP1;ratioP1;P1;durP2;ratioP2;P2;SDS_P1;SDS_P2;PMS_P1;PMS_P2;Temp;Humidity;BMP_temperature;BMP_pressure;BME280_temperature;BME280_humidity;BME280_pressure;Samples;Min_cycle;Max_cycle;Signal;HPM_P1;HPM_P2
2023/03/07 00:00:42;;;;;;;5.45;4.80;;;;;;;6.37;73.32;99843.03;5147805;27;20031;-73
2023/03/07 00:03:10;;;;;;;4.40;4.00;;;;;;;6.37;73.57;99854.03;5148521;27;20069;-73
2023/03/07 00:05:36;;;;;;;4.03;3.63;;;;;;;6.37;73.61;99851.28;5151835;27;20035;-73
2023/03/07 00:08:01;;;;;;;3.58;3.28;;;;;;;6.37;73.15;99843.03;5137711;27;20069;-73
2023/03/07 00:10:29;;;;;;;4.03;3.63;;;;;;;6.30;73.49;99845.09;5134864;27;20027;-74
2023/03/07 00:12:55;;;;;;;3.38;3.03;;;;;;;6.27;73.39;99840.91;5136099;27;20054;-73
2023/03/07 00:15:21;;;;;;;2.70;2.47;;;;;;;6.27;73.04;99837.31;5148094;27;20523;-73
2023/03/07 00:17:46;;;;;;;3.97;2.45;;;;;;;6.30;71.95;99839.59;5150589;27;20023;-74
2023/03/07 00:20:13;;;;;;;4.43;2.10;;;;;;;6.27;71.87;99832.66;5148337;27;20034;-74
2023/03/07 00:22:39;;;;;;;3.58;2.03;;;;;;;6.26;72.42;99830.97;5150898;27;20015;-74
2023/03/07 00:25:04;;;;;;;1.90;1.80;;;;;;;6.25;72.36;99828.47;5150571;27;20463;-74
2023/03/07 00:27:31;;;;;;;2.20;2.00;;;;;;;6.22;71.74;99823.47;5151412;27;20046;-74
2023/03/07 00:29:56;;;;;;;2.63;1.77;;;;;;;6.24;71.87;99835.06;5150712;27;20034;-73
2023/03/07 00:32:22;;;;;;;2.17;1.45;;;;;;;6.24;71.89;99832.31;5146245;27;20059;-74
2023/03/07 00:34:47;;;;;;;1.77;1.67;;;;;;;6.15;71.85;99818.94;5151431;27;20069;-73
2023/03/07 00:37:16;;;;;;;1.80;1.70;;;;;;;6.15;71.34;99818.94;5149173;27;20026;-73
2023/03/07 00:39:41;;;;;;;2.13;1.80;;;;;;;6.16;71.89;99822.53;5149504;27;20393;-73
2023/03/07 00:42:07;;;;;;;2.10;1.90;;;;;;;6.13;71.90;99821.13;5151290;27;20033;-74
2023/03/07 00:44:32;;;;;;;1.65;1.55;;;;;;;6.17;71.94;99826.97;5147920;27;20039;-73
2023/03/07 00:46:58;;;;;;;2.30;1.63;;;;;;;6.16;72.59;99817.03;5146798;27;20026;-73
2023/03/07 00:49:23;;;;;;;2.25;1.75;;;;;;;6.16;72.56;99817.03;5142873;27;20026;-74
2023/03/07 00:51:49;;;;;;;1.55;1.45;;;;;;;6.13;72.62;99810.09;5150036;27;20022;-74
2023/03/07 00:54:17;;;;;;;1.70;1.60;;;;;;;6.14;72.95;99814.53;5153315;27;20491;-74
2023/03/07 00:56:42;;;;;;;1.85;1.73;;;;;;;6.14;72.93;99813.69;5155665;27;20054;-73
2023/03/07 00:59:08;;;;;;;1.77;1.67;;;;;;;6.15;72.81;99810.69;5154891;27;20430;-74
2023/03/07 01:01:33;;;;;;;2.17;1.98;;;;;;;6.14;73.15;99798.00;5152461;27;20754;-74
2023/03/07 01:03:59;;;;;;;2.17;1.98;;;;;;;6.20;72.75;99806.34;5146629;27;20035;-74
2023/03/07 01:06:29;;;;;;;2.15;2.00;;;;;;;6.12;73.19;99802.91;5150559;27;20485;-73
2023/03/07 01:08:58;;;;;;;2.00;1.90;;;;;;;6.13;73.48;99803.72;5147136;27;20072;-73
2023/03/07 01:11:24;;;;;;;3.03;2.50;;;;;;;6.15;72.95;99796.06;5152050;27;20031;-73
2023/03/07 01:13:49;;;;;;;2.65;2.00;;;;;;;6.15;73.50;99791.41;5154258;27;20033;-73
2023/03/07 01:16:16;;;;;;;2.55;2.35;;;;;;;6.19;72.99;99788.97;5154977;27;20031;-73
2023/03/07 01:18:42;;;;;;;2.75;2.50;;;;;;;6.13;73.35;99795.47;5152860;27;20022;-74
2023/03/07 01:21:10;;;;;;;2.60;2.38;;;;;;;6.15;73.44;99794.16;5153913;27;20026;-73
2023/03/07 01:23:36;;;;;;;3.17;2.88;;;;;;;6.12;73.48;99783.63;5152379;27;20111;-73
2023/03/07 01:26:01;;;;;;;2.90;2.60;;;;;;;6.15;73.12;99790.56;5152630;27;20117;-73
2023/03/07 01:28:26;;;;;;;3.17;2.83;;;;;;;6.08;73.77;99778.88;5152684;27;20027;-74
2023/03/07 01:30:59;;;;;;;3.08;2.78;;;;;;;6.08;74.13;99779.69;5153357;27;20497;-73
2023/03/07 01:33:25;;;;;;;2.95;2.72;;;;;;;6.12;73.85;99767.09;5153061;27;20055;-73
2023/03/07 01:35:50;;;;;;;3.22;2.70;;;;;;;6.17;73.69;99771.00;5154198;27;20019;-73
2023/03/07 01:38:15;;;;;;;3.35;3.15;;;;;;;6.14;73.72;99773.19;5153243;27;20031;-73
2023/03/07 01:40:41;;;;;;;3.35;3.05;;;;;;;6.13;74.15;99768.78;5149774;27;20038;-73
2023/03/07 01:43:28;;;;;;;3.50;3.20;;;;;;;6.17;74.08;99763.59;5152723;27;20042;-73
2023/03/07 01:46:18;;;;;;;3.90;3.55;;;;;;;6.16;73.90;99764.66;5154601;27;20114;-73
2023/03/07 01:48:44;;;;;;;4.13;3.83;;;;;;;6.13;73.97;99759.66;5153080;27;20026;-73
2023/03/07 01:51:10;;;;;;;4.38;3.97;;;;;;;6.12;73.92;99761.59;5151997;27;20031;-73
2023/03/07 01:53:36;;;;;;;4.22;3.83;;;;;;;6.12;74.57;99760.75;5153613;27;20042;-73
2023/03/07 01:56:02;;;;;;;4.25;3.85;;;;;;;6.10;74.29;99760.19;5151749;27;20053;-73
2023/03/07 01:58:27;;;;;;;6.78;4.40;;;;;;;6.11;74.29;99759.09;5150811;27;20569;-73
2023/03/07 02:00:52;;;;;;;4.65;4.25;;;;;;;6.12;74.39;99747.81;5153587;27;20034;-74
2023/03/07 02:03:28;;;;;;;6.55;4.60;;;;;;;6.13;74.35;99760.50;5153807;27;20023;-74
2023/03/07 02:05:57;;;;;;;4.75;4.35;;;;;;;6.14;74.16;99748.41;5152697;27;20039;-74
2023/03/07 02:08:26;;;;;;;5.20;4.72;;;;;;;6.05;74.79;99752.69;5152411;27;20041;-73
2023/03/07 02:10:51;;;;;;;5.75;4.97;;;;;;;6.05;74.45;99747.16;5153310;27;20035;-73
2023/03/07 02:13:17;;;;;;;5.32;4.85;;;;;;;5.99;74.32;99736.31;5150290;27;20033;-74
2023/03/07 02:15:42;;;;;;;5.30;4.15;;;;;;;6.02;75.29;99742.16;5152001;27;20076;-74
2023/03/07 02:18:08;;;;;;;5.25;4.75;;;;;;;6.02;74.69;99736.63;5151404;27;20105;-73
2023/03/07 02:20:46;;;;;;;5.13;4.65;;;;;;;6.05;74.80;99743.53;5153188;27;20411;-74
2023/03/07 02:23:38;;;;;;;5.00;4.60;;;;;;;6.08;74.74;99743.06;5150656;27;20027;-74
2023/03/07 02:26:11;;;;;;;5.28;4.80;;;;;;;6.09;74.91;99733.69;5103923;27;20039;-74
2023/03/07 02:28:41;;;;;;;4.90;4.43;;;;;;;6.10;74.47;99733.47;5151663;27;20042;-74
2023/03/07 02:31:07;;;;;;;4.68;4.15;;;;;;;6.11;73.98;99740.63;5149639;27;20023;-72
2023/03/07 02:33:36;;;;;;;5.03;4.53;;;;;;;6.12;74.50;99725.75;5134149;27;20061;-74
2023/03/07 02:36:05;;;;;;;4.28;3.97;;;;;;;6.10;74.64;99727.13;5132566;27;20491;-74
2023/03/07 02:38:36;;;;;;;4.53;4.13;;;;;;;6.09;74.44;99722.69;5140562;27;20027;-74
2023/03/07 02:41:02;;;;;;;4.40;4.00;;;;;;;6.11;74.37;99721.34;5152042;27;20046;-74
2023/03/07 02:43:28;;;;;;;4.22;3.83;;;;;;;6.08;74.37;99719.09;5153374;27;20026;-73
2023/03/07 02:45:54;;;;;;;3.95;3.55;;;;;;;6.11;74.43;99709.50;5151649;27;20038;-74
2023/03/07 02:48:22;;;;;;;6.55;4.55;;;;;;;6.10;74.45;99716.94;5147529;27;20536;-73
2023/03/07 02:50:47;;;;;;;4.03;3.63;;;;;;;6.08;74.46;99715.50;5149158;27;20059;-73
2023/03/07 02:53:13;;;;;;;4.38;3.90;;;;;;;6.09;74.62;99722.69;5147956;27;20118;-74
2023/03/07 02:55:38;;;;;;;4.55;3.85;;;;;;;5.99;74.67;99714.25;5152236;27;20029;-74
2023/03/07 02:58:04;;;;;;;4.60;4.20;;;;;;;6.03;74.55;99713.50;5145946;27;20027;-74
2023/03/07 03:00:29;;;;;;;4.82;4.40;;;;;;;6.02;74.46;99711.03;5145259;27;20381;-74
2023/03/07 03:02:55;;;;;;;4.57;3.88;;;;;;;6.02;74.35;99698.06;5153010;27;20388;-74
2023/03/07 03:05:20;;;;;;;4.22;3.83;;;;;;;6.02;74.43;99703.59;5150992;27;20018;-73
2023/03/07 03:07:45;;;;;;;5.43;3.90;;;;;;;6.03;74.85;99710.75;5132418;27;20096;-73
2023/03/07 03:10:11;;;;;;;4.25;3.85;;;;;;;6.04;74.66;99712.41;5138517;27;20376;-73
2023/03/07 03:12:36;;;;;;;4.88;3.80;;;;;;;6.08;74.63;99708.06;5150082;27;20118;-73
2023/03/07 03:15:04;;;;;;;4.15;3.75;;;;;;;6.08;75.02;99708.06;5152612;27;20385;-73
2023/03/07 03:17:29;;;;;;;4.30;3.85;;;;;;;6.07;74.33;99706.41;5148613;27;20026;-74
2023/03/07 03:19:55;;;;;;;4.22;3.83;;;;;;;6.05;74.09;99714.09;5150625;27;20044;-73
2023/03/07 03:22:20;;;;;;;4.10;3.70;;;;;;;6.04;74.23;99700.56;5151828;27;20035;-74
2023/03/07 03:24:46;;;;;;;4.82;4.05;;;;;;;6.06;74.65;99703.91;5151970;27;20027;-74
2023/03/07 03:27:11;;;;;;;5.53;4.50;;;;;;;6.05;74.51;99694.81;5149720;27;20461;-74
2023/03/07 03:29:36;;;;;;;4.40;4.03;;;;;;;6.04;74.29;99704.16;5151588;27;20770;-74
2023/03/07 03:32:02;;;;;;;4.63;4.22;;;;;;;6.03;74.38;99699.75;5150724;27;20038;-74
2023/03/07 03:34:27;;;;;;;5.05;4.40;;;;;;;6.03;74.18;99696.16;5144380;27;20080;-74
2023/03/07 03:36:52;;;;;;;4.47;4.07;;;;;;;6.00;74.38;99694.72;5151988;27;20572;-74
2023/03/07 03:39:18;;;;;;;4.90;4.10;;;;;;;5.99;74.29;99693.06;5152269;27;20026;-74
2023/03/07 03:41:43;;;;;;;4.43;4.03;;;;;;;6.02;74.47;99697.25;5150195;27;20027;-74
2023/03/07 03:44:09;;;;;;;4.90;4.50;;;;;;;5.98;74.85;99693.31;5148212;27;20022;-74
2023/03/07 03:46:35;;;;;;;5.43;4.90;;;;;;;5.98;74.78;99696.09;5151636;27;20026;-74
2023/03/07 03:49:00;;;;;;;4.75;4.30;;;;;;;6.01;74.67;99684.53;5151622;27;20018;-74
2023/03/07 03:51:26;;;;;;;3.95;3.65;;;;;;;5.99;74.31;99673.78;5148005;27;20117;-74
2023/03/07 03:53:52;;;;;;;4.53;3.97;;;;;;;5.99;74.27;99676.53;5149214;27;20384;-74
2023/03/07 03:56:20;;;;;;;4.13;3.72;;;;;;;5.94;74.23;99670.97;5140537;27;20019;-73
2023/03/07 03:58:47;;;;;;;4.43;3.72;;;;;;;5.97;74.35;99673.19;5149039;27;20586;-74
2023/03/07 04:01:13;;;;;;;4.25;3.83;;;;;;;5.93;74.05;99665.69;5150566;27;20023;-74
2023/03/07 04:03:41;;;;;;;4.50;4.07;;;;;;;5.96;74.53;99666.00;5151190;27;20034;-74
2023/03/07 04:06:17;;;;;;;4.47;4.07;;;;;;;5.93;74.59;99661.00;5151440;27;20544;-74
2023/03/07 04:08:43;;;;;;;4.45;4.07;;;;;;;5.97;74.67;99653.06;5139040;27;20067;-74
2023/03/07 04:11:09;;;;;;;4.45;4.05;;;;;;;5.95;74.20;99656.09;5151933;27;20114;-74
2023/03/07 04:13:35;;;;;;;4.75;4.20;;;;;;;5.97;74.16;99645.63;5149349;27;20190;-74
2023/03/07 04:16:01;;;;;;;4.55;3.92;;;;;;;5.98;74.29;99643.75;5150057;27;20031;-74
2023/03/07 04:18:26;;;;;;;4.18;3.83;;;;;;;6.00;74.62;99636.88;5149956;27;20155;-74
2023/03/07 04:20:51;;;;;;;4.03;3.60;;;;;;;6.01;74.62;99638.56;5149792;27;20051;-74
2023/03/07 04:23:18;;;;;;;4.00;3.60;;;;;;;5.99;74.15;99634.41;5147858;27;20038;-74
2023/03/07 04:25:55;;;;;;;4.22;3.50;;;;;;;5.98;74.36;99629.97;5147075;27;20019;-74
2023/03/07 04:28:26;;;;;;;4.13;3.72;;;;;;;5.95;74.00;99627.72;5151394;27;20095;-74
2023/03/07 04:30:52;;;;;;;4.20;3.63;;;;;;;5.97;74.64;99631.88;5150834;27;20026;-74
2023/03/07 04:33:18;;;;;;;3.50;3.15;;;;;;;5.99;74.53;99626.97;5148876;27;20050;-74
2023/03/07 04:35:44;;;;;;;5.10;3.97;;;;;;;5.95;74.04;99628.56;5150367;27;20062;-74
2023/03/07 04:38:10;;;;;;;3.85;3.45;;;;;;;5.99;74.26;99620.63;5150784;27;20031;-74
2023/03/07 04:40:35;;;;;;;3.70;3.40;;;;;;;6.00;74.56;99617.59;5151352;27;20033;-74
2023/03/07 04:43:02;;;;;;;3.92;3.50;;;;;;;5.98;73.82;99614.28;5139185;27;20040;-74
2023/03/07 04:45:28;;;;;;;4.45;4.00;;;;;;;5.95;74.52;99609.28;5130201;28;20389;-74
2023/03/07 04:47:54;;;;;;;3.85;3.47;;;;;;;5.94;74.71;99618.63;5145764;27;20015;-74
2023/03/07 04:50:19;;;;;;;4.00;3.60;;;;;;;5.97;74.31;99612.59;5151235;27;20026;-74
2023/03/07 04:52:45;;;;;;;4.35;3.95;;;;;;;5.94;74.51;99607.63;5148390;27;20074;-74
2023/03/07 04:55:11;;;;;;;3.58;3.33;;;;;;;5.93;74.17;99608.69;5150928;27;20050;-75
2023/03/07 04:57:39;;;;;;;5.20;3.97;;;;;;;5.93;73.61;99613.34;5150253;27;20050;-73
2023/03/07 05:00:08;;;;;;;4.57;3.95;;;;;;;5.93;74.67;99605.91;5144832;27;20446;-73
2023/03/07 05:02:37;;;;;;;4.47;3.60;;;;;;;5.95;74.28;99606.53;5149211;27;20023;-73
2023/03/07 05:05:04;;;;;;;4.53;4.00;;;;;;;5.94;74.00;99604.03;5145724;27;20411;-74
2023/03/07 05:07:30;;;;;;;4.68;4.10;;;;;;;5.90;73.97;99611.94;5140013;27;20381;-74
2023/03/07 05:09:55;;;;;;;4.53;3.95;;;;;;;5.92;74.10;99604.25;5129915;28;20023;-74
2023/03/07 05:12:22;;;;;;;4.53;3.78;;;;;;;5.95;74.03;99609.28;5143355;27;20042;-74
2023/03/07 05:14:48;;;;;;;4.70;3.97;;;;;;;5.94;74.27;99604.03;5149715;27;20576;-74
2023/03/07 05:17:14;;;;;;;6.07;3.90;;;;;;;5.98;74.28;99605.19;5148304;27;20110;-74
2023/03/07 05:19:39;;;;;;;5.30;4.20;;;;;;;5.95;74.33;99598.25;5150156;27;20026;-74
2023/03/07 05:22:05;;;;;;;4.38;3.97;;;;;;;5.92;73.41;99604.25;5150445;27;20129;-74
2023/03/07 05:24:30;;;;;;;4.95;4.13;;;;;;;5.90;74.03;99596.25;5148690;27;20023;-74
2023/03/07 05:26:55;;;;;;;4.40;3.95;;;;;;;5.87;73.81;99579.38;5150288;27;20039;-75
2023/03/07 05:29:21;;;;;;;5.40;4.40;;;;;;;5.87;73.75;99579.38;5150442;27;20047;-74
2023/03/07 05:31:46;;;;;;;4.55;4.15;;;;;;;5.88;73.80;99578.28;5149133;27;20042;-74
2023/03/07 05:34:12;;;;;;;8.27;5.72;;;;;;;5.87;74.15;99568.38;5146159;27;20483;-74
2023/03/07 05:36:37;;;;;;;9.07;5.95;;;;;;;5.88;74.35;99575.53;5148516;27;20062;-74
2023/03/07 05:39:03;;;;;;;8.88;5.80;;;;;;;5.85;74.54;99573.28;5148808;27;20091;-74
2023/03/07 05:41:29;;;;;;;9.60;5.63;;;;;;;5.86;74.87;99583.22;5154213;27;20039;-75
2023/03/07 05:43:54;;;;;;;9.90;6.03;;;;;;;5.87;74.59;99573.88;5154297;27;20380;-74
2023/03/07 05:46:20;;;;;;;11.00;5.93;;;;;;;5.88;74.25;99576.38;5154450;27;20545;-73
2023/03/07 05:48:46;;;;;;;8.98;5.75;;;;;;;5.84;74.94;99588.16;5153271;27;20031;-73
2023/03/07 05:51:11;;;;;;;7.75;5.50;;;;;;;5.84;75.12;99577.13;5145034;27;20052;-73
2023/03/07 05:53:36;;;;;;;6.82;5.40;;;;;;;5.84;74.94;99574.38;5154684;27;20034;-74
2023/03/07 05:56:02;;;;;;;8.32;5.13;;;;;;;5.84;74.59;99572.44;5142174;27;20697;-74
2023/03/07 05:58:27;;;;;;;5.57;5.05;;;;;;;5.84;75.26;99568.88;5150030;27;20037;-72
2023/03/07 06:00:53;;;;;;;7.82;5.60;;;;;;;5.86;74.84;99577.72;5146247;27;20034;-72
2023/03/07 06:03:18;;;;;;;5.80;5.15;;;;;;;5.83;74.78;99567.22;5147677;27;20023;-72
2023/03/07 06:05:43;;;;;;;6.07;4.97;;;;;;;5.81;75.15;99569.38;5149354;27;20372;-72
2023/03/07 06:08:08;;;;;;;5.78;5.22;;;;;;;5.84;75.07;99568.88;5142109;27;20029;-72
2023/03/07 06:10:34;;;;;;;7.00;5.35;;;;;;;5.80;75.03;99573.22;5147351;27;20035;-72
2023/03/07 06:12:59;;;;;;;5.38;4.88;;;;;;;5.79;75.10;99572.38;5147113;27;20035;-71
2023/03/07 06:15:25;;;;;;;5.78;4.78;;;;;;;5.82;74.96;99580.16;5152453;27;20109;-72
2023/03/07 06:17:51;;;;;;;4.60;4.20;;;;;;;5.81;74.83;99572.13;5152918;27;20031;-72
2023/03/07 06:20:19;;;;;;;5.38;4.88;;;;;;;5.81;74.60;99561.94;5152573;27;20019;-71
2023/03/07 06:22:45;;;;;;;4.65;4.25;;;;;;;5.83;74.47;99572.72;5152380;27;20511;-72
2023/03/07 06:25:10;;;;;;;7.82;4.63;;;;;;;5.83;74.49;99576.31;5147467;27;20050;-72
2023/03/07 06:27:36;;;;;;;5.18;4.30;;;;;;;5.84;74.79;99579.88;5152405;27;20069;-73
2023/03/07 06:30:04;;;;;;;4.30;3.67;;;;;;;5.86;74.10;99588.75;5151983;27;20054;-73
2023/03/07 06:32:31;;;;;;;3.90;3.50;;;;;;;5.82;73.46;99593.09;5151440;27;20055;-72
2023/03/07 06:34:56;;;;;;;3.88;3.53;;;;;;;5.82;72.74;99598.59;5150140;27;20079;-72
2023/03/07 06:37:22;;;;;;;4.90;3.90;;;;;;;5.76;72.51;99594.91;5140154;27;20038;-72
2023/03/07 06:39:47;;;;;;;3.60;3.13;;;;;;;5.77;72.37;99596.56;5144169;27;20022;-72
2023/03/07 06:42:12;;;;;;;3.63;3.33;;;;;;;5.71;71.56;99580.25;5148957;27;20388;-73
2023/03/07 06:44:37;;;;;;;4.05;3.47;;;;;;;5.69;72.26;99587.91;5139700;27;20042;-72
2023/03/07 06:47:03;;;;;;;4.15;3.72;;;;;;;5.68;71.85;99580.75;5143821;27;20088;-70
2023/03/07 06:49:29;;;;;;;4.90;4.03;;;;;;;5.61;71.83;99573.47;5141048;27;20469;-70
2023/03/07 06:51:54;;;;;;;4.82;4.38;;;;;;;5.59;71.77;99578.41;5145742;27;20041;-70
2023/03/07 06:54:20;;;;;;;5.57;4.70;;;;;;;5.60;71.63;99580.09;5142688;27;20018;-68
2023/03/07 06:56:45;;;;;;;5.60;4.50;;;;;;;5.55;71.86;99593.78;5138546;27;20068;-69
2023/03/07 06:59:11;;;;;;;4.65;4.25;;;;;;;5.57;71.90;99596.25;5134438;27;20027;-74
2023/03/07 07:01:39;;;;;;;4.68;4.25;;;;;;;5.52;71.50;99591.53;5141139;27;20029;-68
2023/03/07 07:04:04;;;;;;;5.05;4.65;;;;;;;5.50;71.98;99598.34;5144798;27;20034;-70
2023/03/07 07:06:30;;;;;;;5.07;4.68;;;;;;;5.47;71.81;99596.94;5139760;27;20026;-69
2023/03/07 07:08:56;;;;;;;4.93;4.43;;;;;;;5.46;71.86;99598.00;5146948;27;20027;-70
2023/03/07 07:11:23;;;;;;;5.38;4.88;;;;;;;5.46;72.06;99602.69;5144245;27;20059;-68
2023/03/07 07:13:49;;;;;;;5.40;4.90;;;;;;;5.38;71.50;99603.94;5151090;27;20113;-67
2023/03/07 07:16:15;;;;;;;5.30;4.53;;;;;;;5.34;71.39;99597.25;5145552;27;20081;-67
2023/03/07 07:18:40;;;;;;;5.40;4.35;;;;;;;5.31;70.76;99598.63;5146260;27;20130;-69
2023/03/07 07:21:06;;;;;;;4.65;4.25;;;;;;;5.28;70.37;99592.78;5142227;27;20110;-69
2023/03/07 07:23:31;;;;;;;5.38;4.78;;;;;;;5.24;70.77;99589.69;5142923;27;20031;-61
2023/03/07 07:25:56;;;;;;;5.18;4.60;;;;;;;5.23;70.66;99585.28;5143572;27;20022;-71
2023/03/07 07:28:25;;;;;;;5.50;5.00;;;;;;;5.22;70.52;99589.09;5148357;27;20101;-67
2023/03/07 07:30:50;;;;;;;5.35;4.85;;;;;;;5.20;70.72;99601.44;5135790;27;20336;-66
2023/03/07 07:33:16;;;;;;;6.28;5.25;;;;;;;5.15;70.47;99603.03;5144966;27;20592;-67
2023/03/07 07:35:42;;;;;;;5.60;5.10;;;;;;;5.12;70.31;99616.44;5145841;27;20062;-65
2023/03/07 07:38:08;;;;;;;5.28;4.85;;;;;;;5.15;70.37;99619.53;5147248;27;20047;-66
2023/03/07 07:40:33;;;;;;;6.10;5.50;;;;;;;5.10;70.27;99630.41;5149909;27;20026;-61
2023/03/07 07:42:58;;;;;;;7.35;5.43;;;;;;;5.01;70.10;99645.66;5150811;27;20495;-66
2023/03/07 07:45:23;;;;;;;5.72;5.07;;;;;;;4.98;70.19;99640.63;5149396;27;20091;-68
2023/03/07 07:47:50;;;;;;;6.05;5.00;;;;;;;4.98;69.75;99648.88;5145280;27;20029;-67
2023/03/07 07:50:17;;;;;;;5.88;4.93;;;;;;;4.89;70.00;99650.38;5150833;27;20087;-66
2023/03/07 07:52:42;;;;;;;6.15;5.57;;;;;;;4.90;70.33;99657.53;5151273;27;20030;-66
2023/03/07 07:55:09;;;;;;;6.93;5.80;;;;;;;4.86;70.05;99667.34;5149057;27;20098;-66
2023/03/07 07:57:34;;;;;;;6.22;5.63;;;;;;;4.83;70.01;99651.34;5150754;27;20443;-66
2023/03/07 08:00:00;;;;;;;5.90;5.40;;;;;;;4.77;70.27;99647.66;5151383;27;20046;-66
2023/03/07 08:02:25;;;;;;;8.82;6.30;;;;;;;4.76;70.39;99642.44;5149788;27;20046;-66
2023/03/07 08:04:50;;;;;;;6.90;6.07;;;;;;;4.78;70.62;99640.25;5148095;27;20118;-66
2023/03/07 08:07:16;;;;;;;7.35;5.97;;;;;;;4.77;70.43;99652.34;5151047;27;20042;-66
2023/03/07 08:09:50;;;;;;;7.68;6.00;;;;;;;4.79;70.98;99652.91;5150979;27;20018;-66
2023/03/07 08:12:16;;;;;;;6.60;5.90;;;;;;;4.80;70.95;99651.84;5151138;27;20401;-66
2023/03/07 08:14:41;;;;;;;6.30;5.70;;;;;;;4.81;70.78;99659.84;5150642;27;20022;-66
2023/03/07 08:17:06;;;;;;;7.30;5.78;;;;;;;4.83;70.57;99657.66;5151697;27;20023;-66
2023/03/07 08:19:35;;;;;;;7.32;5.95;;;;;;;4.83;70.76;99665.09;5150874;27;20022;-67
2023/03/07 08:22:00;;;;;;;8.05;6.15;;;;;;;4.86;71.02;99681.09;5144486;27;20023;-66
2023/03/07 08:24:26;;;;;;;7.93;6.60;;;;;;;4.84;71.03;99670.34;5145112;27;20593;-67
2023/03/07 08:26:54;;;;;;;10.02;6.85;;;;;;;4.85;70.99;99672.03;5151314;27;20047;-66
2023/03/07 08:29:20;;;;;;;6.82;6.22;;;;;;;4.87;71.04;99672.63;5149758;27;20110;-67
2023/03/07 08:31:45;;;;;;;7.13;6.30;;;;;;;4.86;71.09;99673.69;5150849;27;20462;-67
2023/03/07 08:34:11;;;;;;;9.98;6.93;;;;;;;4.84;70.76;99680.53;5151190;27;20019;-66
2023/03/07 08:36:38;;;;;;;7.05;6.35;;;;;;;4.82;71.07;99677.16;5150657;27;20018;-67
2023/03/07 08:39:03;;;;;;;6.75;6.03;;;;;;;4.82;71.03;99678.00;5148506;27;20125;-67
2023/03/07 08:41:29;;;;;;;7.22;6.53;;;;;;;4.82;71.55;99667.00;5150753;27;20102;-66
2023/03/07 08:43:54;;;;;;;7.88;5.75;;;;;;;4.82;71.24;99675.25;5149844;27;20031;-66
2023/03/07 08:46:19;;;;;;;7.45;6.75;;;;;;;4.83;71.27;99679.66;5150027;27;20083;-66
2023/03/07 08:48:45;;;;;;;7.22;6.63;;;;;;;4.83;71.25;99685.16;5151082;27;20473;-67
2023/03/07 08:51:14;;;;;;;7.05;6.43;;;;;;;4.84;71.14;99677.78;5150438;27;20026;-66
2023/03/07 08:53:41;;;;;;;9.02;6.28;;;;;;;4.82;70.68;99671.66;5150386;27;20050;-67
2023/03/07 08:56:08;;;;;;;6.90;6.30;;;;;;;4.84;70.72;99675.03;5146585;27;20026;-67
2023/03/07 08:58:34;;;;;;;6.47;5.88;;;;;;;4.82;71.10;99677.16;5149972;27;20453;-66
2023/03/07 09:01:00;;;;;;;7.15;6.53;;;;;;;4.81;70.79;99667.25;5150710;27;20034;-67
2023/03/07 09:03:25;;;;;;;6.90;6.28;;;;;;;4.82;70.66;99661.50;5141605;27;20019;-61
2023/03/07 09:05:50;;;;;;;6.70;6.10;;;;;;;4.83;70.90;99667.84;5146721;27;20014;-67
2023/03/07 09:08:18;;;;;;;7.13;6.50;;;;;;;4.86;70.92;99672.84;5142774;27;20113;-67
2023/03/07 09:10:43;;;;;;;6.53;5.93;;;;;;;4.80;70.92;99674.69;5146724;27;20030;-67
2023/03/07 09:13:10;;;;;;;6.57;5.97;;;;;;;4.81;71.00;99667.25;5146366;27;20107;-66
2023/03/07 09:15:38;;;;;;;6.05;5.55;;;;;;;4.84;71.47;99664.84;5143561;27;20058;-66
2023/03/07 09:18:04;;;;;;;6.15;5.55;;;;;;;4.82;71.18;99667.00;5149208;27;20791;-67
2023/03/07 09:20:29;;;;;;;6.20;5.70;;;;;;;4.85;71.07;99684.94;5151995;27;20038;-66
2023/03/07 09:22:54;;;;;;;6.68;6.07;;;;;;;4.84;71.02;99686.03;5152693;27;20022;-66
2023/03/07 09:25:20;;;;;;;7.13;6.50;;;;;;;4.83;71.68;99687.06;5151984;27;20143;-66
2023/03/07 09:27:45;;;;;;;6.75;6.15;;;;;;;4.86;71.54;99689.34;5152393;27;20031;-67
2023/03/07 09:30:12;;;;;;;5.72;4.95;;;;;;;5.09;75.10;99693.94;5154530;27;20027;-66
2023/03/07 09:32:37;;;;;;;7.80;7.00;;;;;;;4.95;71.64;99696.13;5147195;27;20046;-66
2023/03/07 09:35:03;;;;;;;7.43;6.72;;;;;;;4.91;70.98;99700.44;5148829;27;20358;-67
2023/03/07 09:37:28;;;;;;;7.47;6.80;;;;;;;4.83;71.10;99701.66;5152343;27;20452;-66
2023/03/07 09:39:53;;;;;;;7.70;6.90;;;;;;;4.84;71.55;99700.59;5151354;27;20042;-66
2023/03/07 09:42:33;;;;;;;8.50;7.70;;;;;;;4.85;71.76;99688.50;5151160;27;20477;-66
2023/03/07 09:45:23;;;;;;;8.77;7.97;;;;;;;4.84;71.84;99694.28;5148512;27;20083;-66
2023/03/07 09:47:52;;;;;;;8.43;7.63;;;;;;;4.81;71.72;99698.34;5132996;27;20454;-65
2023/03/07 09:50:43;;;;;;;8.55;7.75;;;;;;;4.84;71.89;99697.03;5133925;27;20031;-65
2023/03/07 09:53:17;;;;;;;9.05;8.15;;;;;;;4.80;71.53;99693.09;5147785;27;20057;-66
2023/03/07 09:55:43;;;;;;;9.40;8.50;;;;;;;4.78;71.51;99692.47;5153043;27;20018;-70
2023/03/07 09:58:14;;;;;;;9.90;9.00;;;;;;;4.76;72.11;99697.41;5153240;27;20046;-66
2023/03/07 10:00:41;;;;;;;10.77;9.05;;;;;;;4.81;72.12;99700.25;5151211;27;20023;-67
2023/03/07 10:03:36;;;;;;;9.77;8.85;;;;;;;4.78;71.96;99692.47;5141561;27;20380;-67
2023/03/07 10:06:38;;;;;;;10.05;9.15;;;;;;;4.86;71.61;99692.94;5143630;27;20031;-66
2023/03/07 10:09:10;;;;;;;10.88;9.98;;;;;;;4.80;72.17;99696.66;5122862;27;20038;-68
2023/03/07 10:12:03;;;;;;;10.55;9.65;;;;;;;4.79;72.09;99688.66;5148358;27;20027;-61
2023/03/07 10:14:34;;;;;;;;;;;;;;;4.99;71.45;99689.09;5139951;27;20084;-63
2023/03/07 10:17:29;;;;;;;11.00;9.85;;;;;;;4.90;72.29;99693.28;5151254;27;19915;-62
2023/03/07 10:20:07;;;;;;;9.85;8.95;;;;;;;4.85;72.19;99693.19;5145515;27;20444;-67
2023/03/07 10:22:53;;;;;;;10.05;9.00;;;;;;;4.88;72.11;99696.28;5134907;27;20053;-65
2023/03/07 10:25:55;;;;;;;9.75;8.75;;;;;;;4.85;71.91;99688.50;5147727;27;20035;-63
2023/03/07 10:28:34;;;;;;;11.35;10.25;;;;;;;4.90;72.47;99693.28;5128809;27;20071;-66
2023/03/07 10:31:24;;;;;;;10.35;9.35;;;;;;;4.84;72.28;99697.84;5148188;27;20393;-67
2023/03/07 10:33:52;;;;;;;9.73;8.82;;;;;;;4.86;72.44;99695.69;5141408;27;20039;-67
2023/03/07 10:36:19;;;;;;;10.10;9.10;;;;;;;4.85;71.89;99695.94;5150003;27;20018;-65
2023/03/07 10:39:13;;;;;;;9.43;8.55;;;;;;;4.91;72.47;99692.19;5147041;27;20037;-67
2023/03/07 10:41:39;;;;;;;9.23;8.43;;;;;;;4.86;72.54;99689.34;5146739;27;20551;-66
2023/03/07 10:44:04;;;;;;;11.00;10.00;;;;;;;4.82;72.12;99686.25;5148099;27;20544;-67
2023/03/07 10:46:31;;;;;;;8.20;7.40;;;;;;;4.83;72.32;99695.31;5150455;27;20031;-67
2023/03/07 10:49:26;;;;;;;7.82;7.13;;;;;;;4.87;72.77;99691.00;5146168;27;20046;-62
2023/03/07 10:52:05;;;;;;;7.50;6.80;;;;;;;4.89;72.83;99689.69;5146846;27;20062;-68
2023/03/07 10:54:33;;;;;;;6.95;6.35;;;;;;;4.86;73.07;99694.84;5137211;27;20033;-69
2023/03/07 10:57:04;;;;;;;6.82;6.20;;;;;;;4.85;73.12;99687.69;5136672;27;20525;-73
2023/03/07 10:59:30;;;;;;;6.45;5.85;;;;;;;4.88;71.69;99693.53;5140220;27;20362;-70
2023/03/07 11:01:57;;;;;;;6.85;6.15;;;;;;;4.86;72.33;99689.34;5138915;27;20034;-68
2023/03/07 11:04:26;;;;;;;6.55;5.95;;;;;;;4.89;72.89;99697.94;5139528;27;20038;-69
2023/03/07 11:06:52;;;;;;;5.78;5.28;;;;;;;4.95;72.46;99701.63;5142056;27;20031;-67
2023/03/07 11:09:25;;;;;;;5.55;5.07;;;;;;;4.93;72.39;99696.38;5145912;27;20023;-66
2023/03/07 11:11:55;;;;;;;6.53;5.93;;;;;;;4.92;72.96;99696.63;5139746;27;20019;-65
2023/03/07 11:14:21;;;;;;;6.50;5.80;;;;;;;4.92;72.55;99699.38;5140670;27;20030;-66
2023/03/07 11:16:59;;;;;;;5.90;5.40;;;;;;;4.97;73.04;99699.47;5150306;27;20062;-66
2023/03/07 11:19:41;;;;;;;6.50;5.90;;;;;;;4.97;73.24;99695.91;5138029;27;20027;-68
2023/03/07 11:22:18;;;;;;;;;;;;;;;5.15;72.58;99703.97;5150119;27;20690;-67
2023/03/07 11:25:24;;;;;;;5.88;5.38;;;;;;;5.11;73.07;99700.88;5142792;27;19926;-67
2023/03/07 11:27:52;;;;;;;5.88;5.38;;;;;;;5.10;72.67;99701.09;5147942;27;20046;-69
2023/03/07 11:30:18;;;;;;;5.45;4.93;;;;;;;5.11;73.03;99695.38;5147936;27;20023;-67
2023/03/07 11:32:50;;;;;;;5.93;5.43;;;;;;;5.09;73.29;99694.75;5133755;27;20050;-69
2023/03/07 11:35:20;;;;;;;6.32;5.72;;;;;;;5.10;72.66;99699.16;5140855;27;20110;-75
2023/03/07 11:37:51;;;;;;;5.97;5.47;;;;;;;5.07;73.08;99694.19;5137260;27;20022;-72
2023/03/07 11:40:21;;;;;;;6.57;5.97;;;;;;;5.04;72.96;99700.16;5149530;27;20027;-71
2023/03/07 11:43:25;;;;;;;5.72;5.22;;;;;;;5.09;73.15;99694.75;5148833;27;20023;-73
2023/03/07 11:46:00;;;;;;;5.40;4.90;;;;;;;5.08;72.11;99690.34;5108243;27;20047;-76